<?xml version="1.0" encoding="UTF-8" standalone="no" ?>
<gpx xmlns="http://www.topografix.com/GPX/1/1" xmlns:xsi="http://www.w3.org/2001/XMLSchema-instance" xsi:schemaLocation="http://www.topografix.com/GPX/1/1 http://www.topografix.com/GPX/1/1/gpx.xsd" version="1.1" creator="VisuGPX - https://www.visugpx.com">
  <metadata>
    <name>OMS CHENOVE Marche du vendredi 23 novembre 2012</name>
    <desc><![CDATA[De Velars à Plombières]]></desc>
  </metadata>
  <trk>
    <name><![CDATA[OMS CHENOVE Marche du vendredi 23 novembre 2012_1]]></name>
    <trkseg>
      <trkpt lat="47.31885" lon="4.9078">
        <ele>277.137</ele>
        <time>2012-11-23T09:26:36Z</time>
      </trkpt>
      <trkpt lat="47.31895" lon="4.90785">
        <ele>279.57</ele>
        <time>2012-11-23T09:26:47Z</time>
      </trkpt>
      <trkpt lat="47.31888" lon="4.90785">
        <ele>293.392</ele>
        <time>2012-11-23T09:26:58Z</time>
      </trkpt>
      <trkpt lat="47.31892" lon="4.90783">
        <ele>305.591</ele>
        <time>2012-11-23T09:27:09Z</time>
      </trkpt>
      <trkpt lat="47.3189" lon="4.90787">
        <ele>303.359</ele>
        <time>2012-11-23T09:27:20Z</time>
      </trkpt>
      <trkpt lat="47.31898" lon="4.90777">
        <ele>290.201</ele>
        <time>2012-11-23T09:27:31Z</time>
      </trkpt>
      <trkpt lat="47.319" lon="4.90777">
        <ele>289.684</ele>
        <time>2012-11-23T09:27:42Z</time>
      </trkpt>
      <trkpt lat="47.319" lon="4.90777">
        <ele>289.316</ele>
        <time>2012-11-23T09:27:53Z</time>
      </trkpt>
      <trkpt lat="47.319" lon="4.90778">
        <ele>289.051</ele>
        <time>2012-11-23T09:28:04Z</time>
      </trkpt>
      <trkpt lat="47.31902" lon="4.90775">
        <ele>287.609</ele>
        <time>2012-11-23T09:28:15Z</time>
      </trkpt>
      <trkpt lat="47.31912" lon="4.90773">
        <ele>283.724</ele>
        <time>2012-11-23T09:28:26Z</time>
      </trkpt>
      <trkpt lat="47.31917" lon="4.90768">
        <ele>283.794</ele>
        <time>2012-11-23T09:28:37Z</time>
      </trkpt>
      <trkpt lat="47.31922" lon="4.90767">
        <ele>282.323</ele>
        <time>2012-11-23T09:28:48Z</time>
      </trkpt>
      <trkpt lat="47.31925" lon="4.9076">
        <ele>282.593</ele>
        <time>2012-11-23T09:28:59Z</time>
      </trkpt>
      <trkpt lat="47.31935" lon="4.90747">
        <ele>283.899</ele>
        <time>2012-11-23T09:29:10Z</time>
      </trkpt>
      <trkpt lat="47.31943" lon="4.90733">
        <ele>290.151</ele>
        <time>2012-11-23T09:29:21Z</time>
      </trkpt>
      <trkpt lat="47.31947" lon="4.90717">
        <ele>288.73</ele>
        <time>2012-11-23T09:29:32Z</time>
      </trkpt>
      <trkpt lat="47.31948" lon="4.90702">
        <ele>293.186</ele>
        <time>2012-11-23T09:29:43Z</time>
      </trkpt>
      <trkpt lat="47.3195" lon="4.90693">
        <ele>293.953</ele>
        <time>2012-11-23T09:29:54Z</time>
      </trkpt>
      <trkpt lat="47.31955" lon="4.9068">
        <ele>295.033</ele>
        <time>2012-11-23T09:30:05Z</time>
      </trkpt>
      <trkpt lat="47.31952" lon="4.90663">
        <ele>299.619</ele>
        <time>2012-11-23T09:30:16Z</time>
      </trkpt>
      <trkpt lat="47.31952" lon="4.90655">
        <ele>301.518</ele>
        <time>2012-11-23T09:30:27Z</time>
      </trkpt>
      <trkpt lat="47.3195" lon="4.90642">
        <ele>301.423</ele>
        <time>2012-11-23T09:30:38Z</time>
      </trkpt>
      <trkpt lat="47.31953" lon="4.90627">
        <ele>302.27</ele>
        <time>2012-11-23T09:30:49Z</time>
      </trkpt>
      <trkpt lat="47.31953" lon="4.90602">
        <ele>304.88</ele>
        <time>2012-11-23T09:31:00Z</time>
      </trkpt>
      <trkpt lat="47.31952" lon="4.90565">
        <ele>298.161</ele>
        <time>2012-11-23T09:31:11Z</time>
      </trkpt>
      <trkpt lat="47.31943" lon="4.90552">
        <ele>305.662</ele>
        <time>2012-11-23T09:31:22Z</time>
      </trkpt>
      <trkpt lat="47.31937" lon="4.90532">
        <ele>305.893</ele>
        <time>2012-11-23T09:31:33Z</time>
      </trkpt>
      <trkpt lat="47.31937" lon="4.90497">
        <ele>310.855</ele>
        <time>2012-11-23T09:31:44Z</time>
      </trkpt>
      <trkpt lat="47.31935" lon="4.9046">
        <ele>300.022</ele>
        <time>2012-11-23T09:31:55Z</time>
      </trkpt>
      <trkpt lat="47.31935" lon="4.9043">
        <ele>303.451</ele>
        <time>2012-11-23T09:32:06Z</time>
      </trkpt>
      <trkpt lat="47.31935" lon="4.90407">
        <ele>307.804</ele>
        <time>2012-11-23T09:32:17Z</time>
      </trkpt>
      <trkpt lat="47.31937" lon="4.90382">
        <ele>307.69</ele>
        <time>2012-11-23T09:32:28Z</time>
      </trkpt>
      <trkpt lat="47.31938" lon="4.9037">
        <ele>308.496</ele>
        <time>2012-11-23T09:32:39Z</time>
      </trkpt>
      <trkpt lat="47.31942" lon="4.90345">
        <ele>309.419</ele>
        <time>2012-11-23T09:32:50Z</time>
      </trkpt>
      <trkpt lat="47.3194" lon="4.90317">
        <ele>295.261</ele>
        <time>2012-11-23T09:33:01Z</time>
      </trkpt>
      <trkpt lat="47.3194" lon="4.90295">
        <ele>294.434</ele>
        <time>2012-11-23T09:33:12Z</time>
      </trkpt>
      <trkpt lat="47.31938" lon="4.90273">
        <ele>293.348</ele>
        <time>2012-11-23T09:33:23Z</time>
      </trkpt>
      <trkpt lat="47.31945" lon="4.90252">
        <ele>292.863</ele>
        <time>2012-11-23T09:33:34Z</time>
      </trkpt>
      <trkpt lat="47.3195" lon="4.90228">
        <ele>291.576</ele>
        <time>2012-11-23T09:33:45Z</time>
      </trkpt>
      <trkpt lat="47.31957" lon="4.90207">
        <ele>293.542</ele>
        <time>2012-11-23T09:33:56Z</time>
      </trkpt>
      <trkpt lat="47.31962" lon="4.90187">
        <ele>295.651</ele>
        <time>2012-11-23T09:34:07Z</time>
      </trkpt>
      <trkpt lat="47.31968" lon="4.90167">
        <ele>296.361</ele>
        <time>2012-11-23T09:34:18Z</time>
      </trkpt>
      <trkpt lat="47.31977" lon="4.90148">
        <ele>298.031</ele>
        <time>2012-11-23T09:34:29Z</time>
      </trkpt>
      <trkpt lat="47.3199" lon="4.90132">
        <ele>298.995</ele>
        <time>2012-11-23T09:34:40Z</time>
      </trkpt>
      <trkpt lat="47.32002" lon="4.90122">
        <ele>301.892</ele>
        <time>2012-11-23T09:34:51Z</time>
      </trkpt>
      <trkpt lat="47.32015" lon="4.90118">
        <ele>302.688</ele>
        <time>2012-11-23T09:35:02Z</time>
      </trkpt>
      <trkpt lat="47.3203" lon="4.90118">
        <ele>303.064</ele>
        <time>2012-11-23T09:35:13Z</time>
      </trkpt>
      <trkpt lat="47.32045" lon="4.90117">
        <ele>303.381</ele>
        <time>2012-11-23T09:35:24Z</time>
      </trkpt>
      <trkpt lat="47.32062" lon="4.90113">
        <ele>304.746</ele>
        <time>2012-11-23T09:35:35Z</time>
      </trkpt>
      <trkpt lat="47.32077" lon="4.90107">
        <ele>305.488</ele>
        <time>2012-11-23T09:35:46Z</time>
      </trkpt>
      <trkpt lat="47.32093" lon="4.90098">
        <ele>306.942</ele>
        <time>2012-11-23T09:35:57Z</time>
      </trkpt>
      <trkpt lat="47.32108" lon="4.9009">
        <ele>304.649</ele>
        <time>2012-11-23T09:36:08Z</time>
      </trkpt>
      <trkpt lat="47.32122" lon="4.90078">
        <ele>306.773</ele>
        <time>2012-11-23T09:36:19Z</time>
      </trkpt>
      <trkpt lat="47.3213" lon="4.90068">
        <ele>307.156</ele>
        <time>2012-11-23T09:36:30Z</time>
      </trkpt>
      <trkpt lat="47.32143" lon="4.90058">
        <ele>308.21</ele>
        <time>2012-11-23T09:36:41Z</time>
      </trkpt>
      <trkpt lat="47.32157" lon="4.90047">
        <ele>308.571</ele>
        <time>2012-11-23T09:36:52Z</time>
      </trkpt>
      <trkpt lat="47.32168" lon="4.90033">
        <ele>309.917</ele>
        <time>2012-11-23T09:37:03Z</time>
      </trkpt>
      <trkpt lat="47.3218" lon="4.90023">
        <ele>312.274</ele>
        <time>2012-11-23T09:37:14Z</time>
      </trkpt>
      <trkpt lat="47.32185" lon="4.90018">
        <ele>315.418</ele>
        <time>2012-11-23T09:37:25Z</time>
      </trkpt>
      <trkpt lat="47.322" lon="4.9001">
        <ele>315.656</ele>
        <time>2012-11-23T09:37:36Z</time>
      </trkpt>
      <trkpt lat="47.32215" lon="4.90005">
        <ele>316.668</ele>
        <time>2012-11-23T09:37:47Z</time>
      </trkpt>
      <trkpt lat="47.32233" lon="4.90003">
        <ele>318.204</ele>
        <time>2012-11-23T09:37:58Z</time>
      </trkpt>
      <trkpt lat="47.32248" lon="4.89998">
        <ele>319.819</ele>
        <time>2012-11-23T09:38:09Z</time>
      </trkpt>
      <trkpt lat="47.32258" lon="4.89988">
        <ele>320.865</ele>
        <time>2012-11-23T09:38:20Z</time>
      </trkpt>
      <trkpt lat="47.32267" lon="4.89968">
        <ele>322.244</ele>
        <time>2012-11-23T09:38:31Z</time>
      </trkpt>
      <trkpt lat="47.32267" lon="4.89965">
        <ele>323.095</ele>
        <time>2012-11-23T09:38:42Z</time>
      </trkpt>
      <trkpt lat="47.32265" lon="4.89955">
        <ele>323.585</ele>
        <time>2012-11-23T09:38:53Z</time>
      </trkpt>
      <trkpt lat="47.32267" lon="4.89947">
        <ele>323.817</ele>
        <time>2012-11-23T09:39:04Z</time>
      </trkpt>
      <trkpt lat="47.32262" lon="4.89938">
        <ele>322.489</ele>
        <time>2012-11-23T09:39:15Z</time>
      </trkpt>
      <trkpt lat="47.3225" lon="4.89933">
        <ele>324.211</ele>
        <time>2012-11-23T09:39:26Z</time>
      </trkpt>
      <trkpt lat="47.32233" lon="4.89913">
        <ele>327.452</ele>
        <time>2012-11-23T09:39:37Z</time>
      </trkpt>
      <trkpt lat="47.32223" lon="4.89892">
        <ele>329.365</ele>
        <time>2012-11-23T09:39:48Z</time>
      </trkpt>
      <trkpt lat="47.32217" lon="4.8987">
        <ele>331.222</ele>
        <time>2012-11-23T09:39:59Z</time>
      </trkpt>
      <trkpt lat="47.32215" lon="4.89845">
        <ele>330.025</ele>
        <time>2012-11-23T09:40:10Z</time>
      </trkpt>
      <trkpt lat="47.32218" lon="4.89822">
        <ele>330.686</ele>
        <time>2012-11-23T09:40:21Z</time>
      </trkpt>
      <trkpt lat="47.32225" lon="4.89802">
        <ele>331.572</ele>
        <time>2012-11-23T09:40:32Z</time>
      </trkpt>
      <trkpt lat="47.32233" lon="4.89788">
        <ele>332.756</ele>
        <time>2012-11-23T09:40:43Z</time>
      </trkpt>
      <trkpt lat="47.32245" lon="4.89782">
        <ele>333.643</ele>
        <time>2012-11-23T09:40:54Z</time>
      </trkpt>
      <trkpt lat="47.32255" lon="4.89785">
        <ele>334.263</ele>
        <time>2012-11-23T09:41:05Z</time>
      </trkpt>
      <trkpt lat="47.32267" lon="4.89793">
        <ele>334.708</ele>
        <time>2012-11-23T09:41:16Z</time>
      </trkpt>
      <trkpt lat="47.32278" lon="4.898">
        <ele>336.465</ele>
        <time>2012-11-23T09:41:27Z</time>
      </trkpt>
      <trkpt lat="47.32288" lon="4.89805">
        <ele>339.399</ele>
        <time>2012-11-23T09:41:38Z</time>
      </trkpt>
      <trkpt lat="47.32302" lon="4.8981">
        <ele>341.35</ele>
        <time>2012-11-23T09:41:49Z</time>
      </trkpt>
      <trkpt lat="47.32313" lon="4.89815">
        <ele>344.938</ele>
        <time>2012-11-23T09:42:00Z</time>
      </trkpt>
      <trkpt lat="47.32327" lon="4.8982">
        <ele>346.583</ele>
        <time>2012-11-23T09:42:11Z</time>
      </trkpt>
      <trkpt lat="47.3234" lon="4.89825">
        <ele>348.649</ele>
        <time>2012-11-23T09:42:22Z</time>
      </trkpt>
      <trkpt lat="47.32352" lon="4.89828">
        <ele>352.008</ele>
        <time>2012-11-23T09:42:33Z</time>
      </trkpt>
      <trkpt lat="47.32365" lon="4.8983">
        <ele>353.965</ele>
        <time>2012-11-23T09:42:44Z</time>
      </trkpt>
      <trkpt lat="47.32378" lon="4.89833">
        <ele>357.972</ele>
        <time>2012-11-23T09:42:55Z</time>
      </trkpt>
      <trkpt lat="47.32392" lon="4.89838">
        <ele>361.004</ele>
        <time>2012-11-23T09:43:06Z</time>
      </trkpt>
      <trkpt lat="47.32407" lon="4.89843">
        <ele>360.492</ele>
        <time>2012-11-23T09:43:17Z</time>
      </trkpt>
      <trkpt lat="47.32422" lon="4.8985">
        <ele>360.784</ele>
        <time>2012-11-23T09:43:28Z</time>
      </trkpt>
      <trkpt lat="47.32433" lon="4.89853">
        <ele>362.617</ele>
        <time>2012-11-23T09:43:39Z</time>
      </trkpt>
      <trkpt lat="47.32448" lon="4.89858">
        <ele>362.345</ele>
        <time>2012-11-23T09:43:50Z</time>
      </trkpt>
      <trkpt lat="47.32465" lon="4.89863">
        <ele>363.417</ele>
        <time>2012-11-23T09:44:01Z</time>
      </trkpt>
      <trkpt lat="47.32477" lon="4.89868">
        <ele>364.783</ele>
        <time>2012-11-23T09:44:12Z</time>
      </trkpt>
      <trkpt lat="47.3249" lon="4.89873">
        <ele>364.577</ele>
        <time>2012-11-23T09:44:23Z</time>
      </trkpt>
      <trkpt lat="47.32507" lon="4.89882">
        <ele>364.483</ele>
        <time>2012-11-23T09:44:34Z</time>
      </trkpt>
      <trkpt lat="47.3252" lon="4.89888">
        <ele>368.283</ele>
        <time>2012-11-23T09:44:45Z</time>
      </trkpt>
      <trkpt lat="47.32535" lon="4.89895">
        <ele>369.415</ele>
        <time>2012-11-23T09:44:56Z</time>
      </trkpt>
      <trkpt lat="47.3255" lon="4.899">
        <ele>369.661</ele>
        <time>2012-11-23T09:45:07Z</time>
      </trkpt>
      <trkpt lat="47.32567" lon="4.89903">
        <ele>368.831</ele>
        <time>2012-11-23T09:45:18Z</time>
      </trkpt>
      <trkpt lat="47.3258" lon="4.89903">
        <ele>369.137</ele>
        <time>2012-11-23T09:45:29Z</time>
      </trkpt>
      <trkpt lat="47.32598" lon="4.89908">
        <ele>367.211</ele>
        <time>2012-11-23T09:45:40Z</time>
      </trkpt>
      <trkpt lat="47.32612" lon="4.8991">
        <ele>366.641</ele>
        <time>2012-11-23T09:45:51Z</time>
      </trkpt>
      <trkpt lat="47.32628" lon="4.89913">
        <ele>366.23</ele>
        <time>2012-11-23T09:46:02Z</time>
      </trkpt>
      <trkpt lat="47.32643" lon="4.89917">
        <ele>365.124</ele>
        <time>2012-11-23T09:46:13Z</time>
      </trkpt>
      <trkpt lat="47.32657" lon="4.89918">
        <ele>364.575</ele>
        <time>2012-11-23T09:46:24Z</time>
      </trkpt>
      <trkpt lat="47.32672" lon="4.89918">
        <ele>363.484</ele>
        <time>2012-11-23T09:46:35Z</time>
      </trkpt>
      <trkpt lat="47.32688" lon="4.89918">
        <ele>363.461</ele>
        <time>2012-11-23T09:46:46Z</time>
      </trkpt>
      <trkpt lat="47.32703" lon="4.89917">
        <ele>365.028</ele>
        <time>2012-11-23T09:46:57Z</time>
      </trkpt>
      <trkpt lat="47.3272" lon="4.89915">
        <ele>366.607</ele>
        <time>2012-11-23T09:47:08Z</time>
      </trkpt>
      <trkpt lat="47.32733" lon="4.89913">
        <ele>368.454</ele>
        <time>2012-11-23T09:47:19Z</time>
      </trkpt>
      <trkpt lat="47.3275" lon="4.8991">
        <ele>368.965</ele>
        <time>2012-11-23T09:47:30Z</time>
      </trkpt>
      <trkpt lat="47.32765" lon="4.89908">
        <ele>369.816</ele>
        <time>2012-11-23T09:47:41Z</time>
      </trkpt>
      <trkpt lat="47.32782" lon="4.89907">
        <ele>369.894</ele>
        <time>2012-11-23T09:47:52Z</time>
      </trkpt>
      <trkpt lat="47.32797" lon="4.89903">
        <ele>370.949</ele>
        <time>2012-11-23T09:48:03Z</time>
      </trkpt>
      <trkpt lat="47.32812" lon="4.899">
        <ele>372.891</ele>
        <time>2012-11-23T09:48:14Z</time>
      </trkpt>
      <trkpt lat="47.32828" lon="4.89898">
        <ele>371.827</ele>
        <time>2012-11-23T09:48:25Z</time>
      </trkpt>
      <trkpt lat="47.32838" lon="4.899">
        <ele>371.635</ele>
        <time>2012-11-23T09:48:36Z</time>
      </trkpt>
      <trkpt lat="47.32852" lon="4.89903">
        <ele>371.474</ele>
        <time>2012-11-23T09:48:47Z</time>
      </trkpt>
      <trkpt lat="47.32867" lon="4.89908">
        <ele>371.217</ele>
        <time>2012-11-23T09:48:58Z</time>
      </trkpt>
      <trkpt lat="47.32882" lon="4.89912">
        <ele>370.981</ele>
        <time>2012-11-23T09:49:09Z</time>
      </trkpt>
      <trkpt lat="47.32898" lon="4.89917">
        <ele>370.826</ele>
        <time>2012-11-23T09:49:20Z</time>
      </trkpt>
      <trkpt lat="47.32915" lon="4.89922">
        <ele>370.138</ele>
        <time>2012-11-23T09:49:31Z</time>
      </trkpt>
      <trkpt lat="47.3293" lon="4.89925">
        <ele>367.746</ele>
        <time>2012-11-23T09:49:42Z</time>
      </trkpt>
      <trkpt lat="47.32947" lon="4.8993">
        <ele>368.246</ele>
        <time>2012-11-23T09:49:53Z</time>
      </trkpt>
      <trkpt lat="47.32962" lon="4.89933">
        <ele>369.686</ele>
        <time>2012-11-23T09:50:04Z</time>
      </trkpt>
      <trkpt lat="47.32977" lon="4.89938">
        <ele>370.194</ele>
        <time>2012-11-23T09:50:15Z</time>
      </trkpt>
      <trkpt lat="47.32992" lon="4.89942">
        <ele>371.12</ele>
        <time>2012-11-23T09:50:26Z</time>
      </trkpt>
      <trkpt lat="47.33005" lon="4.89943">
        <ele>372.218</ele>
        <time>2012-11-23T09:50:37Z</time>
      </trkpt>
      <trkpt lat="47.33018" lon="4.89932">
        <ele>371.848</ele>
        <time>2012-11-23T09:50:48Z</time>
      </trkpt>
      <trkpt lat="47.33025" lon="4.8991">
        <ele>370.713</ele>
        <time>2012-11-23T09:50:59Z</time>
      </trkpt>
      <trkpt lat="47.33028" lon="4.8989">
        <ele>369.19</ele>
        <time>2012-11-23T09:51:10Z</time>
      </trkpt>
      <trkpt lat="47.3303" lon="4.89872">
        <ele>369.437</ele>
        <time>2012-11-23T09:51:21Z</time>
      </trkpt>
      <trkpt lat="47.33037" lon="4.89853">
        <ele>370.196</ele>
        <time>2012-11-23T09:51:32Z</time>
      </trkpt>
      <trkpt lat="47.33042" lon="4.89832">
        <ele>370.191</ele>
        <time>2012-11-23T09:51:43Z</time>
      </trkpt>
      <trkpt lat="47.33043" lon="4.89812">
        <ele>370.561</ele>
        <time>2012-11-23T09:51:54Z</time>
      </trkpt>
      <trkpt lat="47.33048" lon="4.89787">
        <ele>369.885</ele>
        <time>2012-11-23T09:52:05Z</time>
      </trkpt>
      <trkpt lat="47.33058" lon="4.89775">
        <ele>369.426</ele>
        <time>2012-11-23T09:52:16Z</time>
      </trkpt>
      <trkpt lat="47.33072" lon="4.89772">
        <ele>370.595</ele>
        <time>2012-11-23T09:52:27Z</time>
      </trkpt>
      <trkpt lat="47.33083" lon="4.8977">
        <ele>373.05</ele>
        <time>2012-11-23T09:52:38Z</time>
      </trkpt>
      <trkpt lat="47.33095" lon="4.89768">
        <ele>373.766</ele>
        <time>2012-11-23T09:52:49Z</time>
      </trkpt>
      <trkpt lat="47.33107" lon="4.89768">
        <ele>377.072</ele>
        <time>2012-11-23T09:53:00Z</time>
      </trkpt>
      <trkpt lat="47.33113" lon="4.89768">
        <ele>382.476</ele>
        <time>2012-11-23T09:53:11Z</time>
      </trkpt>
      <trkpt lat="47.33122" lon="4.89767">
        <ele>390.049</ele>
        <time>2012-11-23T09:53:22Z</time>
      </trkpt>
      <trkpt lat="47.33137" lon="4.89768">
        <ele>392.477</ele>
        <time>2012-11-23T09:53:33Z</time>
      </trkpt>
      <trkpt lat="47.33148" lon="4.8977">
        <ele>394.744</ele>
        <time>2012-11-23T09:53:44Z</time>
      </trkpt>
      <trkpt lat="47.33165" lon="4.89772">
        <ele>395.269</ele>
        <time>2012-11-23T09:53:55Z</time>
      </trkpt>
      <trkpt lat="47.33178" lon="4.89775">
        <ele>397.225</ele>
        <time>2012-11-23T09:54:06Z</time>
      </trkpt>
      <trkpt lat="47.3319" lon="4.89773">
        <ele>399.663</ele>
        <time>2012-11-23T09:54:17Z</time>
      </trkpt>
      <trkpt lat="47.33207" lon="4.8977">
        <ele>400.307</ele>
        <time>2012-11-23T09:54:28Z</time>
      </trkpt>
      <trkpt lat="47.33218" lon="4.89773">
        <ele>400.018</ele>
        <time>2012-11-23T09:54:39Z</time>
      </trkpt>
      <trkpt lat="47.33233" lon="4.89772">
        <ele>400.666</ele>
        <time>2012-11-23T09:54:50Z</time>
      </trkpt>
      <trkpt lat="47.3325" lon="4.89772">
        <ele>399.115</ele>
        <time>2012-11-23T09:55:01Z</time>
      </trkpt>
      <trkpt lat="47.3326" lon="4.8977">
        <ele>400.893</ele>
        <time>2012-11-23T09:55:12Z</time>
      </trkpt>
      <trkpt lat="47.33272" lon="4.89773">
        <ele>401.458</ele>
        <time>2012-11-23T09:55:23Z</time>
      </trkpt>
      <trkpt lat="47.33288" lon="4.89788">
        <ele>402.648</ele>
        <time>2012-11-23T09:55:34Z</time>
      </trkpt>
      <trkpt lat="47.33302" lon="4.89795">
        <ele>404.58</ele>
        <time>2012-11-23T09:55:45Z</time>
      </trkpt>
      <trkpt lat="47.33323" lon="4.89805">
        <ele>399.555</ele>
        <time>2012-11-23T09:55:56Z</time>
      </trkpt>
      <trkpt lat="47.33345" lon="4.8982">
        <ele>392.111</ele>
        <time>2012-11-23T09:56:07Z</time>
      </trkpt>
      <trkpt lat="47.33358" lon="4.89828">
        <ele>389.867</ele>
        <time>2012-11-23T09:56:18Z</time>
      </trkpt>
      <trkpt lat="47.33375" lon="4.89842">
        <ele>391.259</ele>
        <time>2012-11-23T09:56:29Z</time>
      </trkpt>
      <trkpt lat="47.33383" lon="4.89852">
        <ele>393.306</ele>
        <time>2012-11-23T09:56:40Z</time>
      </trkpt>
      <trkpt lat="47.3339" lon="4.89862">
        <ele>394.175</ele>
        <time>2012-11-23T09:56:51Z</time>
      </trkpt>
      <trkpt lat="47.33403" lon="4.89868">
        <ele>394.191</ele>
        <time>2012-11-23T09:57:02Z</time>
      </trkpt>
      <trkpt lat="47.33418" lon="4.89878">
        <ele>394.132</ele>
        <time>2012-11-23T09:57:13Z</time>
      </trkpt>
      <trkpt lat="47.33433" lon="4.89875">
        <ele>395.204</ele>
        <time>2012-11-23T09:57:24Z</time>
      </trkpt>
      <trkpt lat="47.33452" lon="4.89873">
        <ele>396.796</ele>
        <time>2012-11-23T09:57:35Z</time>
      </trkpt>
      <trkpt lat="47.33467" lon="4.89877">
        <ele>399.088</ele>
        <time>2012-11-23T09:57:46Z</time>
      </trkpt>
      <trkpt lat="47.33485" lon="4.89873">
        <ele>397.028</ele>
        <time>2012-11-23T09:57:57Z</time>
      </trkpt>
      <trkpt lat="47.33503" lon="4.8987">
        <ele>398.084</ele>
        <time>2012-11-23T09:58:08Z</time>
      </trkpt>
      <trkpt lat="47.33518" lon="4.89865">
        <ele>397.995</ele>
        <time>2012-11-23T09:58:19Z</time>
      </trkpt>
      <trkpt lat="47.33533" lon="4.89862">
        <ele>399.475</ele>
        <time>2012-11-23T09:58:30Z</time>
      </trkpt>
      <trkpt lat="47.3355" lon="4.8986">
        <ele>398.284</ele>
        <time>2012-11-23T09:58:41Z</time>
      </trkpt>
      <trkpt lat="47.33567" lon="4.89858">
        <ele>396.473</ele>
        <time>2012-11-23T09:58:52Z</time>
      </trkpt>
      <trkpt lat="47.33583" lon="4.89857">
        <ele>395.546</ele>
        <time>2012-11-23T09:59:03Z</time>
      </trkpt>
      <trkpt lat="47.336" lon="4.89857">
        <ele>393.491</ele>
        <time>2012-11-23T09:59:14Z</time>
      </trkpt>
      <trkpt lat="47.33615" lon="4.89858">
        <ele>394.298</ele>
        <time>2012-11-23T09:59:25Z</time>
      </trkpt>
      <trkpt lat="47.33632" lon="4.8986">
        <ele>392.646</ele>
        <time>2012-11-23T09:59:36Z</time>
      </trkpt>
      <trkpt lat="47.33647" lon="4.8986">
        <ele>391.09</ele>
        <time>2012-11-23T09:59:47Z</time>
      </trkpt>
      <trkpt lat="47.33662" lon="4.8986">
        <ele>390.089</ele>
        <time>2012-11-23T09:59:58Z</time>
      </trkpt>
      <trkpt lat="47.33675" lon="4.89858">
        <ele>390.792</ele>
        <time>2012-11-23T10:00:09Z</time>
      </trkpt>
      <trkpt lat="47.3369" lon="4.89862">
        <ele>392.666</ele>
        <time>2012-11-23T10:00:20Z</time>
      </trkpt>
      <trkpt lat="47.33705" lon="4.8987">
        <ele>393.358</ele>
        <time>2012-11-23T10:00:31Z</time>
      </trkpt>
      <trkpt lat="47.33717" lon="4.89878">
        <ele>392.661</ele>
        <time>2012-11-23T10:00:42Z</time>
      </trkpt>
      <trkpt lat="47.33727" lon="4.89887">
        <ele>393.045</ele>
        <time>2012-11-23T10:00:53Z</time>
      </trkpt>
      <trkpt lat="47.33733" lon="4.89898">
        <ele>393.594</ele>
        <time>2012-11-23T10:01:04Z</time>
      </trkpt>
      <trkpt lat="47.3374" lon="4.8992">
        <ele>394.516</ele>
        <time>2012-11-23T10:01:15Z</time>
      </trkpt>
      <trkpt lat="47.33745" lon="4.8994">
        <ele>393.931</ele>
        <time>2012-11-23T10:01:26Z</time>
      </trkpt>
      <trkpt lat="47.33748" lon="4.89958">
        <ele>393.141</ele>
        <time>2012-11-23T10:01:37Z</time>
      </trkpt>
      <trkpt lat="47.33755" lon="4.89982">
        <ele>392.17</ele>
        <time>2012-11-23T10:01:48Z</time>
      </trkpt>
      <trkpt lat="47.33757" lon="4.9">
        <ele>392.496</ele>
        <time>2012-11-23T10:01:59Z</time>
      </trkpt>
      <trkpt lat="47.33752" lon="4.90017">
        <ele>394.459</ele>
        <time>2012-11-23T10:02:10Z</time>
      </trkpt>
      <trkpt lat="47.3375" lon="4.90037">
        <ele>395.48</ele>
        <time>2012-11-23T10:02:21Z</time>
      </trkpt>
      <trkpt lat="47.33748" lon="4.90062">
        <ele>397.635</ele>
        <time>2012-11-23T10:02:32Z</time>
      </trkpt>
      <trkpt lat="47.33738" lon="4.90078">
        <ele>399.006</ele>
        <time>2012-11-23T10:02:43Z</time>
      </trkpt>
      <trkpt lat="47.33733" lon="4.901">
        <ele>399.546</ele>
        <time>2012-11-23T10:02:54Z</time>
      </trkpt>
      <trkpt lat="47.33723" lon="4.90123">
        <ele>401.971</ele>
        <time>2012-11-23T10:03:05Z</time>
      </trkpt>
      <trkpt lat="47.33718" lon="4.90147">
        <ele>402.573</ele>
        <time>2012-11-23T10:03:16Z</time>
      </trkpt>
      <trkpt lat="47.33712" lon="4.90172">
        <ele>405.274</ele>
        <time>2012-11-23T10:03:27Z</time>
      </trkpt>
      <trkpt lat="47.3371" lon="4.90188">
        <ele>406.6</ele>
        <time>2012-11-23T10:03:38Z</time>
      </trkpt>
      <trkpt lat="47.33703" lon="4.90207">
        <ele>406.179</ele>
        <time>2012-11-23T10:03:49Z</time>
      </trkpt>
      <trkpt lat="47.33705" lon="4.90227">
        <ele>404.329</ele>
        <time>2012-11-23T10:04:00Z</time>
      </trkpt>
      <trkpt lat="47.33707" lon="4.9025">
        <ele>404.535</ele>
        <time>2012-11-23T10:04:11Z</time>
      </trkpt>
      <trkpt lat="47.337" lon="4.90273">
        <ele>405.639</ele>
        <time>2012-11-23T10:04:22Z</time>
      </trkpt>
      <trkpt lat="47.33693" lon="4.90297">
        <ele>407.959</ele>
        <time>2012-11-23T10:04:33Z</time>
      </trkpt>
      <trkpt lat="47.33688" lon="4.9031">
        <ele>408.522</ele>
        <time>2012-11-23T10:04:44Z</time>
      </trkpt>
      <trkpt lat="47.33678" lon="4.90337">
        <ele>408.756</ele>
        <time>2012-11-23T10:04:55Z</time>
      </trkpt>
      <trkpt lat="47.33668" lon="4.90355">
        <ele>411.93</ele>
        <time>2012-11-23T10:05:06Z</time>
      </trkpt>
      <trkpt lat="47.33663" lon="4.90378">
        <ele>413.012</ele>
        <time>2012-11-23T10:05:17Z</time>
      </trkpt>
      <trkpt lat="47.33658" lon="4.904">
        <ele>415.004</ele>
        <time>2012-11-23T10:05:28Z</time>
      </trkpt>
      <trkpt lat="47.33652" lon="4.90412">
        <ele>417.529</ele>
        <time>2012-11-23T10:05:39Z</time>
      </trkpt>
      <trkpt lat="47.33652" lon="4.90418">
        <ele>417.166</ele>
        <time>2012-11-23T10:05:50Z</time>
      </trkpt>
      <trkpt lat="47.33658" lon="4.90428">
        <ele>417.485</ele>
        <time>2012-11-23T10:06:01Z</time>
      </trkpt>
      <trkpt lat="47.33668" lon="4.90438">
        <ele>417.496</ele>
        <time>2012-11-23T10:06:12Z</time>
      </trkpt>
      <trkpt lat="47.33678" lon="4.90448">
        <ele>420.073</ele>
        <time>2012-11-23T10:06:23Z</time>
      </trkpt>
      <trkpt lat="47.3369" lon="4.9046">
        <ele>420.948</ele>
        <time>2012-11-23T10:06:34Z</time>
      </trkpt>
      <trkpt lat="47.33698" lon="4.90467">
        <ele>420.699</ele>
        <time>2012-11-23T10:06:45Z</time>
      </trkpt>
      <trkpt lat="47.33705" lon="4.9047">
        <ele>423.109</ele>
        <time>2012-11-23T10:06:56Z</time>
      </trkpt>
      <trkpt lat="47.33713" lon="4.90478">
        <ele>422.122</ele>
        <time>2012-11-23T10:07:07Z</time>
      </trkpt>
      <trkpt lat="47.33723" lon="4.90487">
        <ele>422.061</ele>
        <time>2012-11-23T10:07:18Z</time>
      </trkpt>
      <trkpt lat="47.33737" lon="4.90495">
        <ele>422.29</ele>
        <time>2012-11-23T10:07:29Z</time>
      </trkpt>
      <trkpt lat="47.33752" lon="4.90503">
        <ele>421.926</ele>
        <time>2012-11-23T10:07:40Z</time>
      </trkpt>
      <trkpt lat="47.33765" lon="4.90512">
        <ele>423.361</ele>
        <time>2012-11-23T10:07:51Z</time>
      </trkpt>
      <trkpt lat="47.33775" lon="4.90517">
        <ele>423.181</ele>
        <time>2012-11-23T10:08:02Z</time>
      </trkpt>
      <trkpt lat="47.33785" lon="4.90523">
        <ele>422.438</ele>
        <time>2012-11-23T10:08:13Z</time>
      </trkpt>
      <trkpt lat="47.33793" lon="4.90528">
        <ele>422.312</ele>
        <time>2012-11-23T10:08:24Z</time>
      </trkpt>
      <trkpt lat="47.33805" lon="4.90537">
        <ele>423.258</ele>
        <time>2012-11-23T10:08:35Z</time>
      </trkpt>
      <trkpt lat="47.33813" lon="4.90542">
        <ele>422.024</ele>
        <time>2012-11-23T10:08:46Z</time>
      </trkpt>
      <trkpt lat="47.33827" lon="4.9055">
        <ele>423.791</ele>
        <time>2012-11-23T10:08:57Z</time>
      </trkpt>
      <trkpt lat="47.33842" lon="4.90557">
        <ele>426.038</ele>
        <time>2012-11-23T10:09:08Z</time>
      </trkpt>
      <trkpt lat="47.33852" lon="4.90572">
        <ele>425.027</ele>
        <time>2012-11-23T10:09:19Z</time>
      </trkpt>
      <trkpt lat="47.3386" lon="4.90588">
        <ele>423.576</ele>
        <time>2012-11-23T10:09:30Z</time>
      </trkpt>
      <trkpt lat="47.33873" lon="4.90613">
        <ele>421.063</ele>
        <time>2012-11-23T10:09:41Z</time>
      </trkpt>
      <trkpt lat="47.3388" lon="4.90633">
        <ele>418.342</ele>
        <time>2012-11-23T10:09:52Z</time>
      </trkpt>
      <trkpt lat="47.33883" lon="4.9065">
        <ele>419.615</ele>
        <time>2012-11-23T10:10:03Z</time>
      </trkpt>
      <trkpt lat="47.3388" lon="4.90665">
        <ele>418.54</ele>
        <time>2012-11-23T10:10:14Z</time>
      </trkpt>
      <trkpt lat="47.33887" lon="4.90693">
        <ele>417.579</ele>
        <time>2012-11-23T10:10:25Z</time>
      </trkpt>
      <trkpt lat="47.3388" lon="4.90718">
        <ele>419.963</ele>
        <time>2012-11-23T10:10:36Z</time>
      </trkpt>
      <trkpt lat="47.3388" lon="4.9074">
        <ele>423.338</ele>
        <time>2012-11-23T10:10:47Z</time>
      </trkpt>
      <trkpt lat="47.3388" lon="4.90758">
        <ele>425.698</ele>
        <time>2012-11-23T10:10:58Z</time>
      </trkpt>
      <trkpt lat="47.33878" lon="4.90788">
        <ele>426.089</ele>
        <time>2012-11-23T10:11:09Z</time>
      </trkpt>
      <trkpt lat="47.3387" lon="4.90815">
        <ele>424.643</ele>
        <time>2012-11-23T10:11:20Z</time>
      </trkpt>
      <trkpt lat="47.33872" lon="4.90835">
        <ele>424.76</ele>
        <time>2012-11-23T10:11:31Z</time>
      </trkpt>
      <trkpt lat="47.33877" lon="4.9086">
        <ele>424.801</ele>
        <time>2012-11-23T10:11:42Z</time>
      </trkpt>
      <trkpt lat="47.33867" lon="4.90878">
        <ele>425.55</ele>
        <time>2012-11-23T10:11:53Z</time>
      </trkpt>
      <trkpt lat="47.33857" lon="4.90895">
        <ele>427.876</ele>
        <time>2012-11-23T10:12:04Z</time>
      </trkpt>
      <trkpt lat="47.33852" lon="4.9092">
        <ele>427.384</ele>
        <time>2012-11-23T10:12:15Z</time>
      </trkpt>
      <trkpt lat="47.33843" lon="4.9094">
        <ele>427.82</ele>
        <time>2012-11-23T10:12:26Z</time>
      </trkpt>
      <trkpt lat="47.33842" lon="4.90955">
        <ele>427.401</ele>
        <time>2012-11-23T10:12:37Z</time>
      </trkpt>
      <trkpt lat="47.33842" lon="4.9098">
        <ele>426.472</ele>
        <time>2012-11-23T10:12:48Z</time>
      </trkpt>
      <trkpt lat="47.3384" lon="4.91003">
        <ele>428.31</ele>
        <time>2012-11-23T10:12:59Z</time>
      </trkpt>
      <trkpt lat="47.33847" lon="4.91027">
        <ele>427.982</ele>
        <time>2012-11-23T10:13:10Z</time>
      </trkpt>
      <trkpt lat="47.33853" lon="4.91042">
        <ele>428.905</ele>
        <time>2012-11-23T10:13:21Z</time>
      </trkpt>
      <trkpt lat="47.33858" lon="4.9107">
        <ele>430.338</ele>
        <time>2012-11-23T10:13:32Z</time>
      </trkpt>
      <trkpt lat="47.33863" lon="4.91097">
        <ele>430.92</ele>
        <time>2012-11-23T10:13:43Z</time>
      </trkpt>
      <trkpt lat="47.3387" lon="4.9112">
        <ele>432.054</ele>
        <time>2012-11-23T10:13:54Z</time>
      </trkpt>
      <trkpt lat="47.33877" lon="4.9114">
        <ele>432.643</ele>
        <time>2012-11-23T10:14:05Z</time>
      </trkpt>
      <trkpt lat="47.33877" lon="4.91167">
        <ele>432.817</ele>
        <time>2012-11-23T10:14:16Z</time>
      </trkpt>
      <trkpt lat="47.33877" lon="4.91188">
        <ele>434.144</ele>
        <time>2012-11-23T10:14:27Z</time>
      </trkpt>
      <trkpt lat="47.33873" lon="4.91202">
        <ele>435.284</ele>
        <time>2012-11-23T10:14:38Z</time>
      </trkpt>
      <trkpt lat="47.33873" lon="4.91218">
        <ele>434.351</ele>
        <time>2012-11-23T10:14:49Z</time>
      </trkpt>
      <trkpt lat="47.33868" lon="4.91235">
        <ele>437.343</ele>
        <time>2012-11-23T10:15:00Z</time>
      </trkpt>
      <trkpt lat="47.33855" lon="4.9125">
        <ele>436.503</ele>
        <time>2012-11-23T10:15:11Z</time>
      </trkpt>
      <trkpt lat="47.3385" lon="4.91263">
        <ele>435.893</ele>
        <time>2012-11-23T10:15:22Z</time>
      </trkpt>
      <trkpt lat="47.33837" lon="4.91278">
        <ele>436.767</ele>
        <time>2012-11-23T10:15:33Z</time>
      </trkpt>
      <trkpt lat="47.33827" lon="4.91293">
        <ele>436.963</ele>
        <time>2012-11-23T10:15:44Z</time>
      </trkpt>
      <trkpt lat="47.33815" lon="4.91312">
        <ele>435.704</ele>
        <time>2012-11-23T10:15:55Z</time>
      </trkpt>
      <trkpt lat="47.33808" lon="4.91332">
        <ele>437.512</ele>
        <time>2012-11-23T10:16:06Z</time>
      </trkpt>
      <trkpt lat="47.33803" lon="4.91348">
        <ele>436.527</ele>
        <time>2012-11-23T10:16:17Z</time>
      </trkpt>
      <trkpt lat="47.33795" lon="4.91368">
        <ele>435.623</ele>
        <time>2012-11-23T10:16:28Z</time>
      </trkpt>
      <trkpt lat="47.33788" lon="4.91388">
        <ele>437.264</ele>
        <time>2012-11-23T10:16:39Z</time>
      </trkpt>
      <trkpt lat="47.3378" lon="4.91402">
        <ele>437.144</ele>
        <time>2012-11-23T10:16:50Z</time>
      </trkpt>
      <trkpt lat="47.33777" lon="4.91425">
        <ele>436.187</ele>
        <time>2012-11-23T10:17:01Z</time>
      </trkpt>
      <trkpt lat="47.33767" lon="4.91443">
        <ele>435.662</ele>
        <time>2012-11-23T10:17:12Z</time>
      </trkpt>
      <trkpt lat="47.33758" lon="4.91463">
        <ele>434.634</ele>
        <time>2012-11-23T10:17:23Z</time>
      </trkpt>
      <trkpt lat="47.3375" lon="4.91482">
        <ele>434.036</ele>
        <time>2012-11-23T10:17:34Z</time>
      </trkpt>
      <trkpt lat="47.3374" lon="4.91495">
        <ele>432.345</ele>
        <time>2012-11-23T10:17:45Z</time>
      </trkpt>
      <trkpt lat="47.3372" lon="4.91515">
        <ele>423.759</ele>
        <time>2012-11-23T10:17:56Z</time>
      </trkpt>
      <trkpt lat="47.3372" lon="4.9152">
        <ele>418.346</ele>
        <time>2012-11-23T10:18:07Z</time>
      </trkpt>
      <trkpt lat="47.3373" lon="4.91525">
        <ele>413.839</ele>
        <time>2012-11-23T10:18:18Z</time>
      </trkpt>
      <trkpt lat="47.33743" lon="4.91528">
        <ele>411.3</ele>
        <time>2012-11-23T10:18:29Z</time>
      </trkpt>
      <trkpt lat="47.33757" lon="4.91528">
        <ele>410.249</ele>
        <time>2012-11-23T10:18:40Z</time>
      </trkpt>
      <trkpt lat="47.3377" lon="4.91527">
        <ele>409.031</ele>
        <time>2012-11-23T10:18:51Z</time>
      </trkpt>
      <trkpt lat="47.33785" lon="4.91527">
        <ele>408.221</ele>
        <time>2012-11-23T10:19:02Z</time>
      </trkpt>
      <trkpt lat="47.33798" lon="4.91527">
        <ele>408.111</ele>
        <time>2012-11-23T10:19:13Z</time>
      </trkpt>
      <trkpt lat="47.33813" lon="4.91523">
        <ele>408.604</ele>
        <time>2012-11-23T10:19:24Z</time>
      </trkpt>
      <trkpt lat="47.33828" lon="4.91522">
        <ele>408</ele>
        <time>2012-11-23T10:19:35Z</time>
      </trkpt>
      <trkpt lat="47.33843" lon="4.91522">
        <ele>409.014</ele>
        <time>2012-11-23T10:19:46Z</time>
      </trkpt>
      <trkpt lat="47.33858" lon="4.9152">
        <ele>409.103</ele>
        <time>2012-11-23T10:19:57Z</time>
      </trkpt>
      <trkpt lat="47.33875" lon="4.91518">
        <ele>409.29</ele>
        <time>2012-11-23T10:20:08Z</time>
      </trkpt>
      <trkpt lat="47.3389" lon="4.91517">
        <ele>409.72</ele>
        <time>2012-11-23T10:20:19Z</time>
      </trkpt>
      <trkpt lat="47.33907" lon="4.91515">
        <ele>408.763</ele>
        <time>2012-11-23T10:20:30Z</time>
      </trkpt>
      <trkpt lat="47.33923" lon="4.91512">
        <ele>407.24</ele>
        <time>2012-11-23T10:20:41Z</time>
      </trkpt>
      <trkpt lat="47.33938" lon="4.9151">
        <ele>407.208</ele>
        <time>2012-11-23T10:20:52Z</time>
      </trkpt>
      <trkpt lat="47.3395" lon="4.91513">
        <ele>407.693</ele>
        <time>2012-11-23T10:21:03Z</time>
      </trkpt>
      <trkpt lat="47.33962" lon="4.91513">
        <ele>405.395</ele>
        <time>2012-11-23T10:21:14Z</time>
      </trkpt>
      <trkpt lat="47.3398" lon="4.91513">
        <ele>403.061</ele>
        <time>2012-11-23T10:21:25Z</time>
      </trkpt>
      <trkpt lat="47.33997" lon="4.91512">
        <ele>400.309</ele>
        <time>2012-11-23T10:21:36Z</time>
      </trkpt>
      <trkpt lat="47.34005" lon="4.91513">
        <ele>399.183</ele>
        <time>2012-11-23T10:21:47Z</time>
      </trkpt>
      <trkpt lat="47.34005" lon="4.91513">
        <ele>399.183</ele>
        <time>2012-11-23T10:21:58Z</time>
      </trkpt>
      <trkpt lat="47.34005" lon="4.91513">
        <ele>399.571</ele>
        <time>2012-11-23T10:22:09Z</time>
      </trkpt>
      <trkpt lat="47.34005" lon="4.91513">
        <ele>399.597</ele>
        <time>2012-11-23T10:22:20Z</time>
      </trkpt>
      <trkpt lat="47.34005" lon="4.91513">
        <ele>399.855</ele>
        <time>2012-11-23T10:22:31Z</time>
      </trkpt>
      <trkpt lat="47.34005" lon="4.91513">
        <ele>399.855</ele>
        <time>2012-11-23T10:22:42Z</time>
      </trkpt>
      <trkpt lat="47.34007" lon="4.91513">
        <ele>399.712</ele>
        <time>2012-11-23T10:22:53Z</time>
      </trkpt>
      <trkpt lat="47.34007" lon="4.91513">
        <ele>399.712</ele>
        <time>2012-11-23T10:23:04Z</time>
      </trkpt>
      <trkpt lat="47.34007" lon="4.91513">
        <ele>399.837</ele>
        <time>2012-11-23T10:23:15Z</time>
      </trkpt>
      <trkpt lat="47.34007" lon="4.91513">
        <ele>399.837</ele>
        <time>2012-11-23T10:23:26Z</time>
      </trkpt>
      <trkpt lat="47.34007" lon="4.91513">
        <ele>399.837</ele>
        <time>2012-11-23T10:23:37Z</time>
      </trkpt>
      <trkpt lat="47.34007" lon="4.91513">
        <ele>399.837</ele>
        <time>2012-11-23T10:23:48Z</time>
      </trkpt>
      <trkpt lat="47.34007" lon="4.91513">
        <ele>399.837</ele>
        <time>2012-11-23T10:23:59Z</time>
      </trkpt>
      <trkpt lat="47.34007" lon="4.91513">
        <ele>399.837</ele>
        <time>2012-11-23T10:24:10Z</time>
      </trkpt>
      <trkpt lat="47.34007" lon="4.91513">
        <ele>399.837</ele>
        <time>2012-11-23T10:24:21Z</time>
      </trkpt>
      <trkpt lat="47.34007" lon="4.91513">
        <ele>399.837</ele>
        <time>2012-11-23T10:24:32Z</time>
      </trkpt>
      <trkpt lat="47.34007" lon="4.91513">
        <ele>399.837</ele>
        <time>2012-11-23T10:24:43Z</time>
      </trkpt>
      <trkpt lat="47.34007" lon="4.91513">
        <ele>399.837</ele>
        <time>2012-11-23T10:24:54Z</time>
      </trkpt>
      <trkpt lat="47.34007" lon="4.91513">
        <ele>399.837</ele>
        <time>2012-11-23T10:25:05Z</time>
      </trkpt>
      <trkpt lat="47.34007" lon="4.91513">
        <ele>399.837</ele>
        <time>2012-11-23T10:25:16Z</time>
      </trkpt>
      <trkpt lat="47.34007" lon="4.91513">
        <ele>399.837</ele>
        <time>2012-11-23T10:25:27Z</time>
      </trkpt>
      <trkpt lat="47.34007" lon="4.91513">
        <ele>399.837</ele>
        <time>2012-11-23T10:25:38Z</time>
      </trkpt>
      <trkpt lat="47.34007" lon="4.91518">
        <ele>399.511</ele>
        <time>2012-11-23T10:25:49Z</time>
      </trkpt>
      <trkpt lat="47.34007" lon="4.91537">
        <ele>398.685</ele>
        <time>2012-11-23T10:26:00Z</time>
      </trkpt>
      <trkpt lat="47.34008" lon="4.91547">
        <ele>399.249</ele>
        <time>2012-11-23T10:26:11Z</time>
      </trkpt>
      <trkpt lat="47.34018" lon="4.91558">
        <ele>398.858</ele>
        <time>2012-11-23T10:26:22Z</time>
      </trkpt>
      <trkpt lat="47.3403" lon="4.91567">
        <ele>397.081</ele>
        <time>2012-11-23T10:26:33Z</time>
      </trkpt>
      <trkpt lat="47.34047" lon="4.91575">
        <ele>397.499</ele>
        <time>2012-11-23T10:26:44Z</time>
      </trkpt>
      <trkpt lat="47.34063" lon="4.91578">
        <ele>397.612</ele>
        <time>2012-11-23T10:26:55Z</time>
      </trkpt>
      <trkpt lat="47.34078" lon="4.91582">
        <ele>396.049</ele>
        <time>2012-11-23T10:27:06Z</time>
      </trkpt>
      <trkpt lat="47.34095" lon="4.91582">
        <ele>393.812</ele>
        <time>2012-11-23T10:27:17Z</time>
      </trkpt>
      <trkpt lat="47.34112" lon="4.91585">
        <ele>392.002</ele>
        <time>2012-11-23T10:27:28Z</time>
      </trkpt>
      <trkpt lat="47.34127" lon="4.91587">
        <ele>390.564</ele>
        <time>2012-11-23T10:27:39Z</time>
      </trkpt>
      <trkpt lat="47.3414" lon="4.9159">
        <ele>389.416</ele>
        <time>2012-11-23T10:27:50Z</time>
      </trkpt>
      <trkpt lat="47.34155" lon="4.91592">
        <ele>388.843</ele>
        <time>2012-11-23T10:28:01Z</time>
      </trkpt>
      <trkpt lat="47.34172" lon="4.9159">
        <ele>388.514</ele>
        <time>2012-11-23T10:28:12Z</time>
      </trkpt>
      <trkpt lat="47.34187" lon="4.91587">
        <ele>388.065</ele>
        <time>2012-11-23T10:28:23Z</time>
      </trkpt>
      <trkpt lat="47.34198" lon="4.9158">
        <ele>386.04</ele>
        <time>2012-11-23T10:28:34Z</time>
      </trkpt>
      <trkpt lat="47.34212" lon="4.91572">
        <ele>385.814</ele>
        <time>2012-11-23T10:28:45Z</time>
      </trkpt>
      <trkpt lat="47.34223" lon="4.9156">
        <ele>384.474</ele>
        <time>2012-11-23T10:28:56Z</time>
      </trkpt>
      <trkpt lat="47.34233" lon="4.91547">
        <ele>383.384</ele>
        <time>2012-11-23T10:29:07Z</time>
      </trkpt>
      <trkpt lat="47.34248" lon="4.91537">
        <ele>382.115</ele>
        <time>2012-11-23T10:29:18Z</time>
      </trkpt>
      <trkpt lat="47.34263" lon="4.91532">
        <ele>381.818</ele>
        <time>2012-11-23T10:29:29Z</time>
      </trkpt>
      <trkpt lat="47.34275" lon="4.91533">
        <ele>380.497</ele>
        <time>2012-11-23T10:29:40Z</time>
      </trkpt>
      <trkpt lat="47.34283" lon="4.91533">
        <ele>380.727</ele>
        <time>2012-11-23T10:29:51Z</time>
      </trkpt>
      <trkpt lat="47.34297" lon="4.91533">
        <ele>380.228</ele>
        <time>2012-11-23T10:30:02Z</time>
      </trkpt>
      <trkpt lat="47.34315" lon="4.91532">
        <ele>379.346</ele>
        <time>2012-11-23T10:30:13Z</time>
      </trkpt>
      <trkpt lat="47.34328" lon="4.91537">
        <ele>379.292</ele>
        <time>2012-11-23T10:30:24Z</time>
      </trkpt>
      <trkpt lat="47.3434" lon="4.9154">
        <ele>378.195</ele>
        <time>2012-11-23T10:30:35Z</time>
      </trkpt>
      <trkpt lat="47.3435" lon="4.91537">
        <ele>378.5</ele>
        <time>2012-11-23T10:30:46Z</time>
      </trkpt>
      <trkpt lat="47.34362" lon="4.91542">
        <ele>374.511</ele>
        <time>2012-11-23T10:30:57Z</time>
      </trkpt>
      <trkpt lat="47.34372" lon="4.91545">
        <ele>371.274</ele>
        <time>2012-11-23T10:31:08Z</time>
      </trkpt>
      <trkpt lat="47.3438" lon="4.91543">
        <ele>370.558</ele>
        <time>2012-11-23T10:31:19Z</time>
      </trkpt>
      <trkpt lat="47.34387" lon="4.91542">
        <ele>374.433</ele>
        <time>2012-11-23T10:31:30Z</time>
      </trkpt>
      <trkpt lat="47.344" lon="4.91545">
        <ele>375.354</ele>
        <time>2012-11-23T10:31:41Z</time>
      </trkpt>
      <trkpt lat="47.34407" lon="4.91542">
        <ele>375.38</ele>
        <time>2012-11-23T10:31:52Z</time>
      </trkpt>
      <trkpt lat="47.34422" lon="4.91543">
        <ele>374.731</ele>
        <time>2012-11-23T10:32:03Z</time>
      </trkpt>
      <trkpt lat="47.34438" lon="4.91545">
        <ele>373.84</ele>
        <time>2012-11-23T10:32:14Z</time>
      </trkpt>
      <trkpt lat="47.3445" lon="4.91547">
        <ele>371.815</ele>
        <time>2012-11-23T10:32:25Z</time>
      </trkpt>
      <trkpt lat="47.34462" lon="4.91545">
        <ele>369.14</ele>
        <time>2012-11-23T10:32:36Z</time>
      </trkpt>
      <trkpt lat="47.34478" lon="4.91553">
        <ele>370.132</ele>
        <time>2012-11-23T10:32:47Z</time>
      </trkpt>
      <trkpt lat="47.34492" lon="4.91565">
        <ele>369.253</ele>
        <time>2012-11-23T10:32:58Z</time>
      </trkpt>
      <trkpt lat="47.34502" lon="4.91572">
        <ele>368.705</ele>
        <time>2012-11-23T10:33:09Z</time>
      </trkpt>
      <trkpt lat="47.3451" lon="4.91583">
        <ele>366.126</ele>
        <time>2012-11-23T10:33:20Z</time>
      </trkpt>
      <trkpt lat="47.3452" lon="4.916">
        <ele>362.435</ele>
        <time>2012-11-23T10:33:31Z</time>
      </trkpt>
      <trkpt lat="47.3453" lon="4.91615">
        <ele>360.81</ele>
        <time>2012-11-23T10:33:42Z</time>
      </trkpt>
      <trkpt lat="47.34538" lon="4.91627">
        <ele>362.649</ele>
        <time>2012-11-23T10:33:53Z</time>
      </trkpt>
      <trkpt lat="47.34552" lon="4.91645">
        <ele>360.813</ele>
        <time>2012-11-23T10:34:04Z</time>
      </trkpt>
      <trkpt lat="47.34563" lon="4.91662">
        <ele>357.082</ele>
        <time>2012-11-23T10:34:15Z</time>
      </trkpt>
      <trkpt lat="47.34572" lon="4.91685">
        <ele>353.706</ele>
        <time>2012-11-23T10:34:26Z</time>
      </trkpt>
      <trkpt lat="47.34577" lon="4.91707">
        <ele>353.651</ele>
        <time>2012-11-23T10:34:37Z</time>
      </trkpt>
      <trkpt lat="47.34588" lon="4.91737">
        <ele>353.494</ele>
        <time>2012-11-23T10:34:48Z</time>
      </trkpt>
      <trkpt lat="47.34602" lon="4.91767">
        <ele>353.806</ele>
        <time>2012-11-23T10:34:59Z</time>
      </trkpt>
      <trkpt lat="47.346" lon="4.91782">
        <ele>352.534</ele>
        <time>2012-11-23T10:35:10Z</time>
      </trkpt>
      <trkpt lat="47.34602" lon="4.91808">
        <ele>349.843</ele>
        <time>2012-11-23T10:35:21Z</time>
      </trkpt>
      <trkpt lat="47.34602" lon="4.91825">
        <ele>349.258</ele>
        <time>2012-11-23T10:35:32Z</time>
      </trkpt>
      <trkpt lat="47.34608" lon="4.91858">
        <ele>346.379</ele>
        <time>2012-11-23T10:35:43Z</time>
      </trkpt>
      <trkpt lat="47.34607" lon="4.91875">
        <ele>346.096</ele>
        <time>2012-11-23T10:35:54Z</time>
      </trkpt>
      <trkpt lat="47.34615" lon="4.91903">
        <ele>344.172</ele>
        <time>2012-11-23T10:36:05Z</time>
      </trkpt>
      <trkpt lat="47.34615" lon="4.91933">
        <ele>341.249</ele>
        <time>2012-11-23T10:36:16Z</time>
      </trkpt>
      <trkpt lat="47.3461" lon="4.9196">
        <ele>337.657</ele>
        <time>2012-11-23T10:36:27Z</time>
      </trkpt>
      <trkpt lat="47.34612" lon="4.91988">
        <ele>336.067</ele>
        <time>2012-11-23T10:36:38Z</time>
      </trkpt>
      <trkpt lat="47.34615" lon="4.9201">
        <ele>333.708</ele>
        <time>2012-11-23T10:36:49Z</time>
      </trkpt>
      <trkpt lat="47.34613" lon="4.92035">
        <ele>330.649</ele>
        <time>2012-11-23T10:37:00Z</time>
      </trkpt>
      <trkpt lat="47.34612" lon="4.92058">
        <ele>327.577</ele>
        <time>2012-11-23T10:37:11Z</time>
      </trkpt>
      <trkpt lat="47.34617" lon="4.92085">
        <ele>326.825</ele>
        <time>2012-11-23T10:37:22Z</time>
      </trkpt>
      <trkpt lat="47.34612" lon="4.92108">
        <ele>327.137</ele>
        <time>2012-11-23T10:37:33Z</time>
      </trkpt>
      <trkpt lat="47.34607" lon="4.92127">
        <ele>326.68</ele>
        <time>2012-11-23T10:37:44Z</time>
      </trkpt>
      <trkpt lat="47.34608" lon="4.92143">
        <ele>326.697</ele>
        <time>2012-11-23T10:37:55Z</time>
      </trkpt>
      <trkpt lat="47.34607" lon="4.92175">
        <ele>322.887</ele>
        <time>2012-11-23T10:38:06Z</time>
      </trkpt>
      <trkpt lat="47.34603" lon="4.92202">
        <ele>319.622</ele>
        <time>2012-11-23T10:38:17Z</time>
      </trkpt>
      <trkpt lat="47.34598" lon="4.92225">
        <ele>317.716</ele>
        <time>2012-11-23T10:38:28Z</time>
      </trkpt>
      <trkpt lat="47.34585" lon="4.92243">
        <ele>314.333</ele>
        <time>2012-11-23T10:38:39Z</time>
      </trkpt>
      <trkpt lat="47.3457" lon="4.92258">
        <ele>311.724</ele>
        <time>2012-11-23T10:38:50Z</time>
      </trkpt>
      <trkpt lat="47.34555" lon="4.92272">
        <ele>309.231</ele>
        <time>2012-11-23T10:39:01Z</time>
      </trkpt>
      <trkpt lat="47.34542" lon="4.9228">
        <ele>307.931</ele>
        <time>2012-11-23T10:39:12Z</time>
      </trkpt>
      <trkpt lat="47.3453" lon="4.92292">
        <ele>308.449</ele>
        <time>2012-11-23T10:39:23Z</time>
      </trkpt>
      <trkpt lat="47.3452" lon="4.92302">
        <ele>308.58</ele>
        <time>2012-11-23T10:39:34Z</time>
      </trkpt>
      <trkpt lat="47.34508" lon="4.92315">
        <ele>308.758</ele>
        <time>2012-11-23T10:39:45Z</time>
      </trkpt>
      <trkpt lat="47.34493" lon="4.92328">
        <ele>309.624</ele>
        <time>2012-11-23T10:39:56Z</time>
      </trkpt>
      <trkpt lat="47.34482" lon="4.92342">
        <ele>310.871</ele>
        <time>2012-11-23T10:40:07Z</time>
      </trkpt>
      <trkpt lat="47.34468" lon="4.92357">
        <ele>311.154</ele>
        <time>2012-11-23T10:40:18Z</time>
      </trkpt>
      <trkpt lat="47.34453" lon="4.92368">
        <ele>311.696</ele>
        <time>2012-11-23T10:40:29Z</time>
      </trkpt>
      <trkpt lat="47.34438" lon="4.92382">
        <ele>312.244</ele>
        <time>2012-11-23T10:40:40Z</time>
      </trkpt>
      <trkpt lat="47.34423" lon="4.92393">
        <ele>310.51</ele>
        <time>2012-11-23T10:40:51Z</time>
      </trkpt>
      <trkpt lat="47.34413" lon="4.92403">
        <ele>310.939</ele>
        <time>2012-11-23T10:41:02Z</time>
      </trkpt>
      <trkpt lat="47.34402" lon="4.92415">
        <ele>312.102</ele>
        <time>2012-11-23T10:41:13Z</time>
      </trkpt>
      <trkpt lat="47.34398" lon="4.92427">
        <ele>313.467</ele>
        <time>2012-11-23T10:41:24Z</time>
      </trkpt>
      <trkpt lat="47.34388" lon="4.92433">
        <ele>313.412</ele>
        <time>2012-11-23T10:41:35Z</time>
      </trkpt>
      <trkpt lat="47.34375" lon="4.92447">
        <ele>313.419</ele>
        <time>2012-11-23T10:41:46Z</time>
      </trkpt>
      <trkpt lat="47.34362" lon="4.92462">
        <ele>313.003</ele>
        <time>2012-11-23T10:41:57Z</time>
      </trkpt>
      <trkpt lat="47.3435" lon="4.92473">
        <ele>313.428</ele>
        <time>2012-11-23T10:42:08Z</time>
      </trkpt>
      <trkpt lat="47.34335" lon="4.92485">
        <ele>312.182</ele>
        <time>2012-11-23T10:42:19Z</time>
      </trkpt>
      <trkpt lat="47.3432" lon="4.92495">
        <ele>311.276</ele>
        <time>2012-11-23T10:42:30Z</time>
      </trkpt>
      <trkpt lat="47.34307" lon="4.92505">
        <ele>309.371</ele>
        <time>2012-11-23T10:42:41Z</time>
      </trkpt>
      <trkpt lat="47.34295" lon="4.92523">
        <ele>308.163</ele>
        <time>2012-11-23T10:42:52Z</time>
      </trkpt>
      <trkpt lat="47.34278" lon="4.9254">
        <ele>305.905</ele>
        <time>2012-11-23T10:43:03Z</time>
      </trkpt>
      <trkpt lat="47.34268" lon="4.92552">
        <ele>304.136</ele>
        <time>2012-11-23T10:43:14Z</time>
      </trkpt>
      <trkpt lat="47.34253" lon="4.92562">
        <ele>303.51</ele>
        <time>2012-11-23T10:43:25Z</time>
      </trkpt>
      <trkpt lat="47.34243" lon="4.92572">
        <ele>303.242</ele>
        <time>2012-11-23T10:43:36Z</time>
      </trkpt>
      <trkpt lat="47.34228" lon="4.9258">
        <ele>304.256</ele>
        <time>2012-11-23T10:43:47Z</time>
      </trkpt>
      <trkpt lat="47.34213" lon="4.92597">
        <ele>306.71</ele>
        <time>2012-11-23T10:43:58Z</time>
      </trkpt>
      <trkpt lat="47.34198" lon="4.92602">
        <ele>307.384</ele>
        <time>2012-11-23T10:44:09Z</time>
      </trkpt>
      <trkpt lat="47.34185" lon="4.92613">
        <ele>307.268</ele>
        <time>2012-11-23T10:44:20Z</time>
      </trkpt>
      <trkpt lat="47.34173" lon="4.92625">
        <ele>307.286</ele>
        <time>2012-11-23T10:44:31Z</time>
      </trkpt>
      <trkpt lat="47.34155" lon="4.9264">
        <ele>306.738</ele>
        <time>2012-11-23T10:44:42Z</time>
      </trkpt>
      <trkpt lat="47.34145" lon="4.92658">
        <ele>307.386</ele>
        <time>2012-11-23T10:44:53Z</time>
      </trkpt>
      <trkpt lat="47.34135" lon="4.92667">
        <ele>307.852</ele>
        <time>2012-11-23T10:45:04Z</time>
      </trkpt>
      <trkpt lat="47.34123" lon="4.92683">
        <ele>307.673</ele>
        <time>2012-11-23T10:45:15Z</time>
      </trkpt>
      <trkpt lat="47.34113" lon="4.92703">
        <ele>306.878</ele>
        <time>2012-11-23T10:45:26Z</time>
      </trkpt>
      <trkpt lat="47.34103" lon="4.9272">
        <ele>305.378</ele>
        <time>2012-11-23T10:45:37Z</time>
      </trkpt>
      <trkpt lat="47.34097" lon="4.9274">
        <ele>305.667</ele>
        <time>2012-11-23T10:45:48Z</time>
      </trkpt>
      <trkpt lat="47.34087" lon="4.92757">
        <ele>306.351</ele>
        <time>2012-11-23T10:45:59Z</time>
      </trkpt>
      <trkpt lat="47.34075" lon="4.92777">
        <ele>306.677</ele>
        <time>2012-11-23T10:46:10Z</time>
      </trkpt>
      <trkpt lat="47.34067" lon="4.92793">
        <ele>306.396</ele>
        <time>2012-11-23T10:46:21Z</time>
      </trkpt>
      <trkpt lat="47.34062" lon="4.92812">
        <ele>306.359</ele>
        <time>2012-11-23T10:46:32Z</time>
      </trkpt>
      <trkpt lat="47.34053" lon="4.92825">
        <ele>307.101</ele>
        <time>2012-11-23T10:46:43Z</time>
      </trkpt>
      <trkpt lat="47.34047" lon="4.9285">
        <ele>306.076</ele>
        <time>2012-11-23T10:46:54Z</time>
      </trkpt>
      <trkpt lat="47.34038" lon="4.92875">
        <ele>305.736</ele>
        <time>2012-11-23T10:47:05Z</time>
      </trkpt>
      <trkpt lat="47.34032" lon="4.92888">
        <ele>305.574</ele>
        <time>2012-11-23T10:47:16Z</time>
      </trkpt>
      <trkpt lat="47.34025" lon="4.92903">
        <ele>305.954</ele>
        <time>2012-11-23T10:47:27Z</time>
      </trkpt>
      <trkpt lat="47.34022" lon="4.92923">
        <ele>307.707</ele>
        <time>2012-11-23T10:47:38Z</time>
      </trkpt>
      <trkpt lat="47.34018" lon="4.92952">
        <ele>309.879</ele>
        <time>2012-11-23T10:47:49Z</time>
      </trkpt>
      <trkpt lat="47.34015" lon="4.92977">
        <ele>309.996</ele>
        <time>2012-11-23T10:48:00Z</time>
      </trkpt>
      <trkpt lat="47.34012" lon="4.93003">
        <ele>307.213</ele>
        <time>2012-11-23T10:48:11Z</time>
      </trkpt>
      <trkpt lat="47.34007" lon="4.93018">
        <ele>307.23</ele>
        <time>2012-11-23T10:48:22Z</time>
      </trkpt>
      <trkpt lat="47.34007" lon="4.93047">
        <ele>307.155</ele>
        <time>2012-11-23T10:48:33Z</time>
      </trkpt>
      <trkpt lat="47.34008" lon="4.93072">
        <ele>307.093</ele>
        <time>2012-11-23T10:48:44Z</time>
      </trkpt>
      <trkpt lat="47.34005" lon="4.93093">
        <ele>305.989</ele>
        <time>2012-11-23T10:48:55Z</time>
      </trkpt>
      <trkpt lat="47.34005" lon="4.93115">
        <ele>306.301</ele>
        <time>2012-11-23T10:49:06Z</time>
      </trkpt>
      <trkpt lat="47.34007" lon="4.93145">
        <ele>305.67</ele>
        <time>2012-11-23T10:49:17Z</time>
      </trkpt>
      <trkpt lat="47.34003" lon="4.93157">
        <ele>304.946</ele>
        <time>2012-11-23T10:49:28Z</time>
      </trkpt>
      <trkpt lat="47.34005" lon="4.93175">
        <ele>305.324</ele>
        <time>2012-11-23T10:49:39Z</time>
      </trkpt>
      <trkpt lat="47.34003" lon="4.93185">
        <ele>306.119</ele>
        <time>2012-11-23T10:49:50Z</time>
      </trkpt>
      <trkpt lat="47.34007" lon="4.932">
        <ele>306.357</ele>
        <time>2012-11-23T10:50:01Z</time>
      </trkpt>
      <trkpt lat="47.34012" lon="4.93215">
        <ele>302.691</ele>
        <time>2012-11-23T10:50:12Z</time>
      </trkpt>
      <trkpt lat="47.34015" lon="4.93223">
        <ele>302.13</ele>
        <time>2012-11-23T10:50:23Z</time>
      </trkpt>
      <trkpt lat="47.34017" lon="4.9323">
        <ele>303.031</ele>
        <time>2012-11-23T10:50:34Z</time>
      </trkpt>
      <trkpt lat="47.34018" lon="4.93235">
        <ele>303.314</ele>
        <time>2012-11-23T10:50:45Z</time>
      </trkpt>
      <trkpt lat="47.34022" lon="4.93238">
        <ele>304.368</ele>
        <time>2012-11-23T10:50:56Z</time>
      </trkpt>
      <trkpt lat="47.34028" lon="4.93242">
        <ele>305.993</ele>
        <time>2012-11-23T10:51:07Z</time>
      </trkpt>
      <trkpt lat="47.34032" lon="4.93245">
        <ele>306.678</ele>
        <time>2012-11-23T10:51:18Z</time>
      </trkpt>
      <trkpt lat="47.34033" lon="4.93247">
        <ele>307.833</ele>
        <time>2012-11-23T10:51:29Z</time>
      </trkpt>
      <trkpt lat="47.34037" lon="4.93248">
        <ele>308.75</ele>
        <time>2012-11-23T10:51:40Z</time>
      </trkpt>
      <trkpt lat="47.34043" lon="4.93248">
        <ele>311.77</ele>
        <time>2012-11-23T10:51:51Z</time>
      </trkpt>
      <trkpt lat="47.34048" lon="4.93252">
        <ele>313.208</ele>
        <time>2012-11-23T10:52:02Z</time>
      </trkpt>
      <trkpt lat="47.34055" lon="4.93253">
        <ele>316.57</ele>
        <time>2012-11-23T10:52:13Z</time>
      </trkpt>
      <trkpt lat="47.34063" lon="4.93255">
        <ele>317.619</ele>
        <time>2012-11-23T10:52:24Z</time>
      </trkpt>
      <trkpt lat="47.34073" lon="4.93255">
        <ele>318.325</ele>
        <time>2012-11-23T10:52:35Z</time>
      </trkpt>
      <trkpt lat="47.34083" lon="4.93255">
        <ele>319.491</ele>
        <time>2012-11-23T10:52:46Z</time>
      </trkpt>
      <trkpt lat="47.34093" lon="4.93257">
        <ele>322.557</ele>
        <time>2012-11-23T10:52:57Z</time>
      </trkpt>
      <trkpt lat="47.34098" lon="4.93257">
        <ele>324.037</ele>
        <time>2012-11-23T10:53:08Z</time>
      </trkpt>
      <trkpt lat="47.34102" lon="4.93257">
        <ele>324.1</ele>
        <time>2012-11-23T10:53:19Z</time>
      </trkpt>
      <trkpt lat="47.34107" lon="4.93257">
        <ele>324.688</ele>
        <time>2012-11-23T10:53:30Z</time>
      </trkpt>
      <trkpt lat="47.34117" lon="4.93258">
        <ele>328.479</ele>
        <time>2012-11-23T10:53:41Z</time>
      </trkpt>
      <trkpt lat="47.34122" lon="4.93258">
        <ele>328.512</ele>
        <time>2012-11-23T10:53:52Z</time>
      </trkpt>
      <trkpt lat="47.34122" lon="4.93258">
        <ele>328.833</ele>
        <time>2012-11-23T10:54:03Z</time>
      </trkpt>
      <trkpt lat="47.34122" lon="4.93258">
        <ele>328.833</ele>
        <time>2012-11-23T10:54:14Z</time>
      </trkpt>
      <trkpt lat="47.34122" lon="4.93258">
        <ele>328.469</ele>
        <time>2012-11-23T10:54:25Z</time>
      </trkpt>
      <trkpt lat="47.34122" lon="4.93258">
        <ele>328.469</ele>
        <time>2012-11-23T10:54:36Z</time>
      </trkpt>
      <trkpt lat="47.34123" lon="4.93258">
        <ele>328.408</ele>
        <time>2012-11-23T10:54:47Z</time>
      </trkpt>
      <trkpt lat="47.34123" lon="4.93258">
        <ele>328.408</ele>
        <time>2012-11-23T10:54:58Z</time>
      </trkpt>
      <trkpt lat="47.34123" lon="4.93258">
        <ele>328.408</ele>
        <time>2012-11-23T10:55:09Z</time>
      </trkpt>
      <trkpt lat="47.34123" lon="4.93258">
        <ele>328.408</ele>
        <time>2012-11-23T10:55:20Z</time>
      </trkpt>
      <trkpt lat="47.34123" lon="4.93258">
        <ele>328.408</ele>
        <time>2012-11-23T10:55:31Z</time>
      </trkpt>
      <trkpt lat="47.34123" lon="4.93258">
        <ele>328.408</ele>
        <time>2012-11-23T10:55:42Z</time>
      </trkpt>
      <trkpt lat="47.34123" lon="4.93258">
        <ele>328.408</ele>
        <time>2012-11-23T10:55:53Z</time>
      </trkpt>
      <trkpt lat="47.34123" lon="4.93258">
        <ele>328.269</ele>
        <time>2012-11-23T10:56:04Z</time>
      </trkpt>
      <trkpt lat="47.34123" lon="4.93258">
        <ele>328.269</ele>
        <time>2012-11-23T10:56:15Z</time>
      </trkpt>
      <trkpt lat="47.34123" lon="4.93258">
        <ele>328.269</ele>
        <time>2012-11-23T10:56:26Z</time>
      </trkpt>
      <trkpt lat="47.34123" lon="4.9326">
        <ele>327.807</ele>
        <time>2012-11-23T10:56:37Z</time>
      </trkpt>
      <trkpt lat="47.34123" lon="4.9326">
        <ele>327.807</ele>
        <time>2012-11-23T10:56:48Z</time>
      </trkpt>
      <trkpt lat="47.34123" lon="4.9326">
        <ele>327.807</ele>
        <time>2012-11-23T10:56:59Z</time>
      </trkpt>
      <trkpt lat="47.34123" lon="4.9326">
        <ele>327.807</ele>
        <time>2012-11-23T10:57:10Z</time>
      </trkpt>
      <trkpt lat="47.34123" lon="4.9326">
        <ele>327.807</ele>
        <time>2012-11-23T10:57:21Z</time>
      </trkpt>
      <trkpt lat="47.34123" lon="4.9326">
        <ele>327.807</ele>
        <time>2012-11-23T10:57:32Z</time>
      </trkpt>
      <trkpt lat="47.34127" lon="4.93267">
        <ele>331.148</ele>
        <time>2012-11-23T10:57:43Z</time>
      </trkpt>
      <trkpt lat="47.34132" lon="4.93273">
        <ele>333.698</ele>
        <time>2012-11-23T10:57:54Z</time>
      </trkpt>
      <trkpt lat="47.34138" lon="4.9329">
        <ele>334.365</ele>
        <time>2012-11-23T10:58:05Z</time>
      </trkpt>
      <trkpt lat="47.3414" lon="4.9331">
        <ele>335.519</ele>
        <time>2012-11-23T10:58:16Z</time>
      </trkpt>
      <trkpt lat="47.3414" lon="4.93335">
        <ele>334.963</ele>
        <time>2012-11-23T10:58:27Z</time>
      </trkpt>
      <trkpt lat="47.34143" lon="4.93357">
        <ele>333.447</ele>
        <time>2012-11-23T10:58:38Z</time>
      </trkpt>
      <trkpt lat="47.34148" lon="4.93378">
        <ele>333.021</ele>
        <time>2012-11-23T10:58:49Z</time>
      </trkpt>
      <trkpt lat="47.34155" lon="4.93395">
        <ele>333.637</ele>
        <time>2012-11-23T10:59:00Z</time>
      </trkpt>
      <trkpt lat="47.34153" lon="4.93412">
        <ele>335.623</ele>
        <time>2012-11-23T10:59:11Z</time>
      </trkpt>
      <trkpt lat="47.34153" lon="4.93433">
        <ele>336.195</ele>
        <time>2012-11-23T10:59:22Z</time>
      </trkpt>
      <trkpt lat="47.34157" lon="4.93458">
        <ele>337.99</ele>
        <time>2012-11-23T10:59:33Z</time>
      </trkpt>
      <trkpt lat="47.34153" lon="4.93472">
        <ele>338.901</ele>
        <time>2012-11-23T10:59:44Z</time>
      </trkpt>
      <trkpt lat="47.34153" lon="4.93485">
        <ele>337.785</ele>
        <time>2012-11-23T10:59:55Z</time>
      </trkpt>
      <trkpt lat="47.3415" lon="4.93503">
        <ele>340.288</ele>
        <time>2012-11-23T11:00:06Z</time>
      </trkpt>
      <trkpt lat="47.3415" lon="4.93518">
        <ele>341.778</ele>
        <time>2012-11-23T11:00:17Z</time>
      </trkpt>
      <trkpt lat="47.34145" lon="4.93532">
        <ele>343.064</ele>
        <time>2012-11-23T11:00:28Z</time>
      </trkpt>
      <trkpt lat="47.34143" lon="4.93557">
        <ele>342.864</ele>
        <time>2012-11-23T11:00:39Z</time>
      </trkpt>
      <trkpt lat="47.34143" lon="4.93577">
        <ele>344.509</ele>
        <time>2012-11-23T11:00:50Z</time>
      </trkpt>
      <trkpt lat="47.34147" lon="4.93592">
        <ele>344.432</ele>
        <time>2012-11-23T11:01:01Z</time>
      </trkpt>
      <trkpt lat="47.34145" lon="4.93607">
        <ele>344.908</ele>
        <time>2012-11-23T11:01:12Z</time>
      </trkpt>
      <trkpt lat="47.34142" lon="4.93617">
        <ele>344.799</ele>
        <time>2012-11-23T11:01:23Z</time>
      </trkpt>
      <trkpt lat="47.3414" lon="4.93628">
        <ele>346.869</ele>
        <time>2012-11-23T11:01:34Z</time>
      </trkpt>
      <trkpt lat="47.34147" lon="4.93638">
        <ele>348.787</ele>
        <time>2012-11-23T11:01:45Z</time>
      </trkpt>
      <trkpt lat="47.34147" lon="4.93648">
        <ele>349.557</ele>
        <time>2012-11-23T11:01:56Z</time>
      </trkpt>
      <trkpt lat="47.34148" lon="4.9365">
        <ele>348.754</ele>
        <time>2012-11-23T11:02:07Z</time>
      </trkpt>
      <trkpt lat="47.34148" lon="4.9365">
        <ele>348.431</ele>
        <time>2012-11-23T11:02:18Z</time>
      </trkpt>
      <trkpt lat="47.34148" lon="4.9365">
        <ele>348.431</ele>
        <time>2012-11-23T11:02:29Z</time>
      </trkpt>
      <trkpt lat="47.34148" lon="4.9365">
        <ele>348.431</ele>
        <time>2012-11-23T11:02:40Z</time>
      </trkpt>
      <trkpt lat="47.34147" lon="4.93658">
        <ele>347.226</ele>
        <time>2012-11-23T11:02:51Z</time>
      </trkpt>
      <trkpt lat="47.34143" lon="4.93677">
        <ele>348.557</ele>
        <time>2012-11-23T11:03:02Z</time>
      </trkpt>
      <trkpt lat="47.3414" lon="4.93695">
        <ele>346.025</ele>
        <time>2012-11-23T11:03:13Z</time>
      </trkpt>
      <trkpt lat="47.34135" lon="4.9371">
        <ele>343.604</ele>
        <time>2012-11-23T11:03:24Z</time>
      </trkpt>
      <trkpt lat="47.34128" lon="4.93727">
        <ele>340.903</ele>
        <time>2012-11-23T11:03:35Z</time>
      </trkpt>
      <trkpt lat="47.34125" lon="4.93747">
        <ele>339.485</ele>
        <time>2012-11-23T11:03:46Z</time>
      </trkpt>
      <trkpt lat="47.3412" lon="4.9376">
        <ele>338.756</ele>
        <time>2012-11-23T11:03:57Z</time>
      </trkpt>
      <trkpt lat="47.34115" lon="4.9378">
        <ele>337.935</ele>
        <time>2012-11-23T11:04:08Z</time>
      </trkpt>
      <trkpt lat="47.34113" lon="4.93802">
        <ele>337.725</ele>
        <time>2012-11-23T11:04:19Z</time>
      </trkpt>
      <trkpt lat="47.3411" lon="4.93827">
        <ele>338.142</ele>
        <time>2012-11-23T11:04:30Z</time>
      </trkpt>
      <trkpt lat="47.34107" lon="4.93838">
        <ele>337.835</ele>
        <time>2012-11-23T11:04:41Z</time>
      </trkpt>
      <trkpt lat="47.341" lon="4.93853">
        <ele>336.546</ele>
        <time>2012-11-23T11:04:52Z</time>
      </trkpt>
      <trkpt lat="47.34092" lon="4.93868">
        <ele>333.577</ele>
        <time>2012-11-23T11:05:03Z</time>
      </trkpt>
      <trkpt lat="47.34082" lon="4.93888">
        <ele>331.86</ele>
        <time>2012-11-23T11:05:14Z</time>
      </trkpt>
      <trkpt lat="47.34078" lon="4.93902">
        <ele>329.587</ele>
        <time>2012-11-23T11:05:25Z</time>
      </trkpt>
      <trkpt lat="47.34075" lon="4.93918">
        <ele>326.685</ele>
        <time>2012-11-23T11:05:36Z</time>
      </trkpt>
      <trkpt lat="47.34067" lon="4.93928">
        <ele>325.842</ele>
        <time>2012-11-23T11:05:47Z</time>
      </trkpt>
      <trkpt lat="47.34065" lon="4.93942">
        <ele>324.746</ele>
        <time>2012-11-23T11:05:58Z</time>
      </trkpt>
      <trkpt lat="47.34062" lon="4.93953">
        <ele>324.314</ele>
        <time>2012-11-23T11:06:09Z</time>
      </trkpt>
      <trkpt lat="47.34053" lon="4.93963">
        <ele>320.32</ele>
        <time>2012-11-23T11:06:20Z</time>
      </trkpt>
      <trkpt lat="47.34048" lon="4.93967">
        <ele>317.463</ele>
        <time>2012-11-23T11:06:31Z</time>
      </trkpt>
      <trkpt lat="47.34045" lon="4.9397">
        <ele>316.057</ele>
        <time>2012-11-23T11:06:42Z</time>
      </trkpt>
      <trkpt lat="47.34037" lon="4.93973">
        <ele>312.096</ele>
        <time>2012-11-23T11:06:53Z</time>
      </trkpt>
      <trkpt lat="47.34023" lon="4.93965">
        <ele>310.934</ele>
        <time>2012-11-23T11:07:04Z</time>
      </trkpt>
      <trkpt lat="47.34022" lon="4.93965">
        <ele>310.302</ele>
        <time>2012-11-23T11:07:15Z</time>
      </trkpt>
      <trkpt lat="47.34022" lon="4.93965">
        <ele>310.302</ele>
        <time>2012-11-23T11:07:26Z</time>
      </trkpt>
      <trkpt lat="47.34022" lon="4.93965">
        <ele>310.302</ele>
        <time>2012-11-23T11:07:37Z</time>
      </trkpt>
      <trkpt lat="47.34022" lon="4.93965">
        <ele>310.302</ele>
        <time>2012-11-23T11:07:48Z</time>
      </trkpt>
      <trkpt lat="47.34022" lon="4.93965">
        <ele>310.302</ele>
        <time>2012-11-23T11:07:59Z</time>
      </trkpt>
      <trkpt lat="47.34018" lon="4.9397">
        <ele>308.376</ele>
        <time>2012-11-23T11:08:10Z</time>
      </trkpt>
      <trkpt lat="47.34008" lon="4.93973">
        <ele>306.236</ele>
        <time>2012-11-23T11:08:21Z</time>
      </trkpt>
      <trkpt lat="47.33997" lon="4.9398">
        <ele>304.497</ele>
        <time>2012-11-23T11:08:32Z</time>
      </trkpt>
      <trkpt lat="47.33987" lon="4.93988">
        <ele>302.922</ele>
        <time>2012-11-23T11:08:43Z</time>
      </trkpt>
      <trkpt lat="47.33983" lon="4.94005">
        <ele>300.002</ele>
        <time>2012-11-23T11:08:54Z</time>
      </trkpt>
      <trkpt lat="47.33977" lon="4.9402">
        <ele>296.632</ele>
        <time>2012-11-23T11:09:05Z</time>
      </trkpt>
      <trkpt lat="47.33973" lon="4.9404">
        <ele>294.024</ele>
        <time>2012-11-23T11:09:16Z</time>
      </trkpt>
      <trkpt lat="47.33965" lon="4.9406">
        <ele>298.023</ele>
        <time>2012-11-23T11:09:27Z</time>
      </trkpt>
      <trkpt lat="47.33958" lon="4.94082">
        <ele>296.421</ele>
        <time>2012-11-23T11:09:38Z</time>
      </trkpt>
      <trkpt lat="47.33953" lon="4.94105">
        <ele>294.812</ele>
        <time>2012-11-23T11:09:49Z</time>
      </trkpt>
      <trkpt lat="47.33948" lon="4.94122">
        <ele>293.191</ele>
        <time>2012-11-23T11:10:00Z</time>
      </trkpt>
      <trkpt lat="47.33943" lon="4.94142">
        <ele>290.465</ele>
        <time>2012-11-23T11:10:11Z</time>
      </trkpt>
      <trkpt lat="47.33938" lon="4.9415">
        <ele>287.592</ele>
        <time>2012-11-23T11:10:22Z</time>
      </trkpt>
      <trkpt lat="47.33927" lon="4.9417">
        <ele>281.994</ele>
        <time>2012-11-23T11:10:33Z</time>
      </trkpt>
      <trkpt lat="47.3392" lon="4.94192">
        <ele>276.266</ele>
        <time>2012-11-23T11:10:44Z</time>
      </trkpt>
      <trkpt lat="47.33918" lon="4.94202">
        <ele>274.24</ele>
        <time>2012-11-23T11:10:55Z</time>
      </trkpt>
    </trkseg>
  </trk>
</gpx>